Time;durP1;ratioP1;P1;durP2;ratioP2;P2;SDS_P1;SDS_P2;PMS_P1;PMS_P2;Temp;Humidity;BMP_temperature;BMP_pressure;BME280_temperature;BME280_humidity;BME280_pressure;Samples;Min_cycle;Max_cycle;Signal;HPM_P1;HPM_P2
2022/03/29 00:01:59;;;;;;;11.27;6.62;;;;;;;13.45;43.79;99044.56;4217416;34;34769;-79
2022/03/29 00:04:28;;;;;;;12.02;6.95;;;;;;;13.28;44.06;99044.97;4218268;34;35346;-78
2022/03/29 00:06:56;;;;;;;12.90;7.57;;;;;;;13.44;43.68;99055.91;4218291;33;35281;-75
2022/03/29 00:09:24;;;;;;;12.73;7.22;;;;;;;13.23;44.21;99052.09;4218148;34;32835;-75
2022/03/29 00:11:53;;;;;;;13.27;6.55;;;;;;;13.36;43.89;99043.06;4218415;34;34053;-80
2022/03/29 00:14:20;;;;;;;12.95;6.62;;;;;;;13.22;44.17;99034.69;4218791;34;35206;-75
2022/03/29 00:16:48;;;;;;;13.77;7.10;;;;;;;13.02;44.68;99036.06;4218321;33;34471;-75
2022/03/29 00:19:16;;;;;;;12.73;7.25;;;;;;;13.20;44.04;99023.41;4219192;34;33521;-75
2022/03/29 00:21:45;;;;;;;13.65;7.30;;;;;;;12.81;45.03;99018.31;4218089;33;33817;-76
2022/03/29 00:24:13;;;;;;;14.50;7.65;;;;;;;12.32;46.23;99023.81;4219145;34;34968;-75
2022/03/29 00:26:41;;;;;;;15.15;8.63;;;;;;;12.15;46.67;99015.50;4216483;33;34022;-75
2022/03/29 00:29:11;;;;;;;17.77;8.32;;;;;;;12.08;47.08;99012.16;4219197;34;33730;-76
2022/03/29 00:31:39;;;;;;;15.88;8.15;;;;;;;12.37;46.09;99005.44;4217538;33;34045;-76
2022/03/29 00:34:07;;;;;;;12.73;7.72;;;;;;;12.08;46.88;99006.94;4218124;34;34956;-75
2022/03/29 00:36:35;;;;;;;12.98;7.37;;;;;;;12.10;46.91;99004.31;4228821;33;34677;-78
2022/03/29 00:39:03;;;;;;;13.27;7.70;;;;;;;12.30;46.26;99004.72;4218929;34;32298;-75
2022/03/29 00:41:31;;;;;;;14.57;6.85;;;;;;;12.18;46.27;98999.78;4218932;34;33942;-75
2022/03/29 00:43:59;;;;;;;12.10;6.80;;;;;;;11.16;48.93;99000.97;4218219;33;35105;-75
2022/03/29 00:46:27;;;;;;;22.17;7.35;;;;;;;11.28;48.58;98997.28;4219133;34;35317;-75
2022/03/29 00:48:55;;;;;;;16.50;8.20;;;;;;;11.10;48.95;98994.16;4218055;34;33707;-76
2022/03/29 00:51:23;;;;;;;13.25;6.85;;;;;;;10.82;49.61;98989.41;4218874;34;34740;-76
2022/03/29 00:53:51;;;;;;;12.95;7.32;;;;;;;10.73;49.76;99000.00;4216892;34;34986;-75
2022/03/29 00:56:20;;;;;;;11.77;6.82;;;;;;;9.98;51.57;98988.97;4218877;34;35407;-75
2022/03/29 00:58:49;;;;;;;16.65;7.87;;;;;;;11.19;48.09;98977.47;4217967;34;33611;-76
2022/03/29 01:01:17;;;;;;;12.98;6.37;;;;;;;10.30;49.94;98974.63;4217062;34;34025;-74
2022/03/29 01:03:45;;;;;;;11.52;6.68;;;;;;;9.38;53.24;98979.34;4217750;34;35916;-75
2022/03/29 01:06:13;;;;;;;9.75;6.35;;;;;;;9.27;54.03;98974.25;4221234;33;35248;-74
2022/03/29 01:08:41;;;;;;;12.93;6.32;;;;;;;8.81;55.59;98971.31;4217456;34;33643;-78
2022/03/29 01:11:12;;;;;;;11.60;6.30;;;;;;;8.97;55.16;98969.41;4217014;34;33898;-74
2022/03/29 01:13:41;;;;;;;9.07;5.55;;;;;;;8.36;57.10;98969.03;4216697;34;35054;-75
2022/03/29 01:18:57;;;;;;;12.18;6.82;;;;;;;8.49;56.71;98962.06;4226472;33;34545;-75
2022/03/29 01:21:30;;;;;;;15.02;6.68;;;;;;;7.95;56.90;98962.41;4217190;34;34184;-75
2022/03/29 01:23:58;;;;;;;11.20;6.55;;;;;;;8.47;55.33;98962.06;4204404;34;34272;-75
2022/03/29 01:26:27;;;;;;;12.93;6.62;;;;;;;9.00;53.96;98959.84;4218435;34;34102;-75
2022/03/29 01:28:54;;;;;;;11.98;6.37;;;;;;;9.06;53.06;98958.91;4225515;33;33699;-79
2022/03/29 01:31:24;;;;;;;15.10;6.22;;;;;;;8.86;53.35;98957.41;4203430;34;33970;-74
2022/03/29 01:33:52;;;;;;;12.32;6.60;;;;;;;8.88;53.59;98960.84;4215641;33;35796;-77
2022/03/29 01:36:20;;;;;;;14.93;6.90;;;;;;;8.55;54.45;98962.00;4218254;34;34072;-75
2022/03/29 01:38:47;;;;;;;15.50;7.07;;;;;;;7.85;56.59;98952.97;4217343;34;33865;-75
2022/03/29 01:41:16;;;;;;;11.73;5.18;;;;;;;8.10;57.02;98949.34;4212167;33;158984;-77
2022/03/29 01:43:43;;;;;;;11.73;7.03;;;;;;;8.23;57.77;98934.56;4214181;34;34724;-75
2022/03/29 01:46:12;;;;;;;12.82;7.25;;;;;;;8.28;57.34;98929.34;4218992;34;34454;-75
2022/03/29 01:48:40;;;;;;;10.63;5.65;;;;;;;7.66;60.45;98932.34;4219222;33;33584;-75
2022/03/29 01:51:10;;;;;;;13.43;6.50;;;;;;;8.10;60.03;98923.44;4220090;34;33867;-75
2022/03/29 01:53:38;;;;;;;16.60;6.50;;;;;;;7.98;59.85;98921.78;4219187;33;35138;-75
2022/03/29 01:56:06;;;;;;;12.40;5.95;;;;;;;8.29;59.55;98920.69;4220456;34;35245;-79
2022/03/29 01:58:34;;;;;;;12.70;7.35;;;;;;;8.43;59.24;98918.84;4219142;33;33964;-74
2022/03/29 02:01:02;;;;;;;12.35;6.57;;;;;;;8.82;58.03;98923.69;4220101;34;33912;-74
2022/03/29 02:03:30;;;;;;;14.98;6.37;;;;;;;9.31;56.81;98917.94;4218322;33;34933;-74
2022/03/29 02:05:59;;;;;;;11.02;6.47;;;;;;;8.52;57.92;98911.00;4220041;34;34345;-75
2022/03/29 02:08:27;;;;;;;12.30;6.57;;;;;;;8.65;57.26;98906.56;4219234;33;33540;-75
2022/03/29 02:10:55;;;;;;;12.82;7.20;;;;;;;8.97;56.76;98894.09;4220054;34;33973;-75
2022/03/29 02:13:23;;;;;;;13.32;6.72;;;;;;;8.82;57.14;98895.97;4216673;34;35014;-74
2022/03/29 02:15:51;;;;;;;11.40;6.35;;;;;;;9.12;56.24;98893.91;4206702;34;33686;-75
2022/03/29 02:18:19;;;;;;;16.77;7.28;;;;;;;8.98;57.14;98894.06;4229492;33;33575;-74
2022/03/29 02:20:47;;;;;;;12.52;7.32;;;;;;;9.55;55.47;98893.38;4219776;34;33853;-74
2022/03/29 02:23:15;;;;;;;11.23;6.43;;;;;;;9.30;56.06;98885.91;4206453;34;34262;-78
2022/03/29 02:25:47;;;;;;;12.88;6.22;;;;;;;9.84;54.06;98879.94;4219974;34;34526;-75
2022/03/29 02:28:15;;;;;;;12.05;6.50;;;;;;;9.37;55.60;98880.59;4219019;33;33840;-74
2022/03/29 02:30:43;;;;;;;11.20;6.68;;;;;;;8.97;56.12;98879.38;4220005;34;33980;-75
2022/03/29 02:33:11;;;;;;;13.38;7.18;;;;;;;8.66;56.66;98878.84;4224107;33;34932;-75
2022/03/29 02:35:39;;;;;;;12.10;6.72;;;;;;;8.63;56.70;98877.16;4218749;34;34967;-75
2022/03/29 02:38:07;;;;;;;12.00;6.75;;;;;;;8.76;56.17;98882.22;4217964;33;33560;-75
2022/03/29 02:40:35;;;;;;;14.93;7.32;;;;;;;8.80;56.55;98882.16;4230114;33;34764;-74
2022/03/29 02:43:03;;;;;;;14.75;7.32;;;;;;;9.04;56.57;98878.44;4219224;33;35805;-74
2022/03/29 02:45:31;;;;;;;16.48;6.90;;;;;;;8.87;57.53;98880.34;4219746;34;34355;-74
2022/03/29 02:47:59;;;;;;;11.00;6.82;;;;;;;9.34;56.10;98878.91;4218956;33;33627;-75
2022/03/29 02:50:27;;;;;;;14.90;7.45;;;;;;;8.79;57.85;98870.06;4217843;34;33953;-75
2022/03/29 02:52:57;;;;;;;9.10;5.87;;;;;;;8.80;57.80;98866.56;4218205;33;35966;-75
2022/03/29 02:55:28;;;;;;;12.07;6.20;;;;;;;9.07;56.85;98864.53;4218681;34;34497;-75
2022/03/29 02:57:56;;;;;;;15.10;6.78;;;;;;;9.75;55.01;98866.22;4217194;33;33004;-75
2022/03/29 03:00:25;;;;;;;13.30;6.43;;;;;;;10.12;53.24;98860.44;4218616;34;33895;-75
2022/03/29 03:02:54;;;;;;;11.30;6.10;;;;;;;9.75;53.85;98861.88;4218895;33;35013;-74
2022/03/29 03:05:26;;;;;;;12.30;6.57;;;;;;;9.11;55.19;98864.47;4218609;34;34541;-75
2022/03/29 03:07:54;;;;;;;13.00;6.70;;;;;;;8.59;57.02;98865.06;4205856;34;32471;-76
2022/03/29 03:10:23;;;;;;;10.82;6.32;;;;;;;8.57;57.32;98865.97;4216313;33;34652;-75
2022/03/29 03:12:51;;;;;;;17.02;6.57;;;;;;;8.65;57.00;98864.16;4217691;33;34981;-74
2022/03/29 03:15:23;;;;;;;12.65;6.80;;;;;;;8.62;57.90;98864.19;4217883;34;34291;-75
2022/03/29 03:17:52;;;;;;;12.35;6.20;;;;;;;8.62;56.23;98866.78;4217754;34;33935;-75
2022/03/29 03:20:22;;;;;;;12.18;6.15;;;;;;;8.91;56.63;98866.44;4219448;34;34823;-74
2022/03/29 03:22:51;;;;;;;10.93;7.18;;;;;;;9.34;54.65;98865.06;4217943;33;35158;-75
2022/03/29 03:25:19;;;;;;;13.90;6.90;;;;;;;9.08;56.38;98859.31;4219255;34;32764;-74
2022/03/29 03:27:48;;;;;;;13.07;6.47;;;;;;;8.80;55.04;98856.19;4218750;33;33836;-75
2022/03/29 03:30:16;;;;;;;9.23;5.60;;;;;;;8.29;56.21;98851.50;4219483;34;34062;-74
2022/03/29 03:32:45;;;;;;;13.10;7.00;;;;;;;8.80;55.32;98853.59;4217404;34;35003;-74
2022/03/29 03:35:18;;;;;;;14.15;7.20;;;;;;;8.20;58.37;98853.31;4218287;34;34494;-74
2022/03/29 03:37:47;;;;;;;11.38;6.72;;;;;;;7.89;59.88;98846.66;4218612;34;33598;-74
2022/03/29 03:40:15;;;;;;;10.25;5.95;;;;;;;7.82;58.18;98849.31;4218448;34;34156;-74
2022/03/29 03:42:43;;;;;;;12.63;5.62;;;;;;;7.64;59.99;98843.41;4218353;33;35638;-74
2022/03/29 03:45:11;;;;;;;10.82;6.60;;;;;;;8.15;58.08;98848.16;4219340;34;34340;-74
2022/03/29 03:47:38;;;;;;;17.30;7.55;;;;;;;8.19;58.05;98841.22;4218550;33;33899;-78
2022/03/29 03:50:08;;;;;;;12.75;6.10;;;;;;;7.80;60.49;98841.56;4219190;34;34862;-74
2022/03/29 03:52:36;;;;;;;10.45;6.37;;;;;;;8.20;59.63;98840.34;4217548;33;36068;-79
2022/03/29 03:55:04;;;;;;;8.68;5.57;;;;;;;8.28;57.53;98848.94;4219007;34;34604;-74
2022/03/29 03:57:33;;;;;;;13.35;6.10;;;;;;;8.20;56.93;98838.62;4218125;34;33737;-73
2022/03/29 04:00:01;;;;;;;15.73;7.20;;;;;;;7.68;59.52;98837.31;4218612;34;34599;-73
2022/03/29 04:02:38;;;;;;;14.98;7.18;;;;;;;6.75;64.27;98841.25;4228574;33;36044;-78
2022/03/29 04:05:08;;;;;;;12.68;7.25;;;;;;;7.30;60.90;98841.00;4219256;34;32933;-73
2022/03/29 04:07:35;;;;;;;15.30;7.32;;;;;;;7.54;61.03;98840.00;4219025;34;33823;-73
2022/03/29 04:10:04;;;;;;;14.20;7.20;;;;;;;6.93;63.68;98829.97;4217236;33;33128;-74
2022/03/29 04:12:32;;;;;;;16.30;7.65;;;;;;;7.86;61.21;98835.47;4217757;34;35230;-73
2022/03/29 04:15:00;;;;;;;15.20;7.30;;;;;;;7.22;62.13;98829.84;4215676;33;35377;-74
2022/03/29 04:17:28;;;;;;;13.30;7.25;;;;;;;6.95;63.98;98833.41;4218370;33;33690;-73
2022/03/29 04:19:56;;;;;;;14.13;7.75;;;;;;;7.10;64.27;98827.31;4217928;33;34153;-74
2022/03/29 04:22:24;;;;;;;14.15;7.00;;;;;;;7.67;62.11;98830.41;4218941;34;36523;-73
2022/03/29 04:24:52;;;;;;;12.82;6.62;;;;;;;7.73;61.30;98827.78;4218080;33;34408;-74
2022/03/29 04:27:20;;;;;;;15.05;7.75;;;;;;;7.86;61.03;98820.75;4218954;34;33586;-73
2022/03/29 04:29:48;;;;;;;15.00;7.95;;;;;;;8.37;59.69;98822.06;4227593;33;33959;-74
2022/03/29 04:32:16;;;;;;;16.98;7.43;;;;;;;7.85;61.50;98828.56;4217851;34;34685;-73
2022/03/29 04:34:46;;;;;;;17.00;8.18;;;;;;;7.77;61.84;98820.84;4215802;33;34473;-73
2022/03/29 04:37:14;;;;;;;15.07;8.35;;;;;;;7.95;60.91;98819.81;4218907;34;33828;-73
2022/03/29 04:39:42;;;;;;;14.63;7.28;;;;;;;8.02;61.09;98820.66;4225796;33;33996;-73
2022/03/29 04:42:10;;;;;;;12.32;7.37;;;;;;;8.25;60.57;98813.50;4204825;34;35138;-75
2022/03/29 04:44:38;;;;;;;13.75;7.70;;;;;;;8.62;59.39;98820.06;4214626;33;34350;-74
2022/03/29 04:47:06;;;;;;;14.50;8.07;;;;;;;8.33;60.54;98816.03;4218895;34;34464;-75
2022/03/29 04:49:35;;;;;;;13.73;6.50;;;;;;;8.15;60.92;98809.25;4217798;34;34853;-75
2022/03/29 04:52:03;;;;;;;14.82;7.32;;;;;;;8.38;60.47;98803.84;4218684;34;35041;-75
2022/03/29 04:54:31;;;;;;;13.23;6.97;;;;;;;8.23;60.53;98802.28;4216866;34;34662;-75
2022/03/29 04:57:00;;;;;;;16.33;8.27;;;;;;;8.37;60.36;98799.56;4218674;34;34553;-74
2022/03/29 04:59:28;;;;;;;15.95;7.72;;;;;;;8.00;61.18;98796.47;4228164;33;34804;-78
2022/03/29 05:01:56;;;;;;;12.32;7.12;;;;;;;8.56;59.12;98799.38;4217371;34;35030;-75
2022/03/29 05:04:24;;;;;;;13.45;7.43;;;;;;;8.23;60.32;98796.25;4217641;34;35168;-74
2022/03/29 05:06:52;;;;;;;13.90;7.35;;;;;;;8.14;60.36;98799.78;4216785;34;33694;-75
2022/03/29 05:09:20;;;;;;;17.08;7.85;;;;;;;8.36;60.25;98795.22;4217572;34;34810;-74
2022/03/29 05:11:48;;;;;;;22.65;8.35;;;;;;;8.99;59.25;98797.13;4215166;34;36153;-73
2022/03/29 05:14:16;;;;;;;15.70;7.15;;;;;;;10.14;55.60;98791.88;4217615;34;34555;-74
2022/03/29 05:16:44;;;;;;;15.75;6.82;;;;;;;10.67;52.93;98796.13;4218221;34;33401;-73
2022/03/29 05:19:12;;;;;;;17.45;7.80;;;;;;;11.75;50.10;98799.84;4217330;34;33846;-73
2022/03/29 05:21:40;;;;;;;17.42;7.80;;;;;;;11.81;49.64;98799.69;4219264;34;34920;-73
2022/03/29 05:24:09;;;;;;;12.88;6.95;;;;;;;12.22;49.21;98800.44;4219181;33;35150;-73
2022/03/29 05:26:37;;;;;;;17.67;7.70;;;;;;;11.07;52.95;98809.19;4217919;33;33749;-73
2022/03/29 05:29:05;;;;;;;30.12;9.70;;;;;;;11.97;50.26;98799.34;4218348;33;34069;-73
2022/03/29 05:31:32;;;;;;;39.42;8.95;;;;;;;11.44;51.79;98803.19;4219262;33;35048;-74
2022/03/29 05:34:01;;;;;;;26.40;9.02;;;;;;;11.68;51.86;98803.47;4219389;33;34423;-74
2022/03/29 05:36:29;;;;;;;12.30;6.55;;;;;;;12.17;49.72;98802.31;4220091;34;34588;-73
2022/03/29 05:38:56;;;;;;;13.85;6.87;;;;;;;12.76;48.25;98808.56;4219240;33;33926;-74
2022/03/29 05:41:29;;;;;;;19.40;7.90;;;;;;;12.41;49.97;98805.19;4219970;34;35992;-73
2022/03/29 05:43:57;;;;;;;15.30;8.20;;;;;;;12.35;50.19;98805.31;4218094;33;35390;-74
2022/03/29 05:49:30;;;;;;;14.23;8.10;;;;;;;12.41;49.60;98807.78;4192762;34;34638;-72
2022/03/29 05:51:59;;;;;;;15.48;8.18;;;;;;;12.92;46.39;98795.91;4211192;34;33941;-72
2022/03/29 05:54:28;;;;;;;13.82;7.53;;;;;;;13.74;47.28;98792.53;4212872;33;34263;-73
2022/03/29 05:56:56;;;;;;;18.85;9.00;;;;;;;14.00;47.12;98803.94;4220153;34;34433;-72
2022/03/29 05:59:24;;;;;;;18.52;8.93;;;;;;;14.34;45.30;98802.78;4217795;33;34922;-73
2022/03/29 06:01:52;;;;;;;20.37;8.90;;;;;;;13.79;46.76;98802.88;4216858;34;34339;-75
2022/03/29 06:04:23;;;;;;;15.18;8.85;;;;;;;14.46;45.56;98806.75;4219309;33;34495;-73
2022/03/29 06:06:51;;;;;;;16.52;8.43;;;;;;;13.73;47.99;98800.44;4219961;34;34275;-73
2022/03/29 06:09:19;;;;;;;14.50;8.60;;;;;;;14.04;46.13;98803.75;4219211;33;33931;-72
2022/03/29 06:11:47;;;;;;;18.85;9.02;;;;;;;14.40;45.67;98805.19;4220002;34;34931;-72
2022/03/29 06:14:16;;;;;;;19.52;10.07;;;;;;;15.62;42.70;98796.28;4216973;34;34369;-82
2022/03/29 06:16:44;;;;;;;14.60;9.30;;;;;;;14.26;45.55;98799.56;4218878;34;33231;-72
2022/03/29 06:19:12;;;;;;;17.65;9.25;;;;;;;14.57;45.06;98801.97;4217914;33;34011;-73
2022/03/29 06:21:40;;;;;;;19.45;9.75;;;;;;;15.11;43.24;98806.13;4219728;34;34770;-72
2022/03/29 06:24:09;;;;;;;22.70;9.90;;;;;;;15.86;42.52;98794.44;4219192;33;35299;-73
2022/03/29 06:26:41;;;;;;;17.90;9.95;;;;;;;15.89;41.17;98796.13;4219902;34;33822;-72
2022/03/29 06:29:10;;;;;;;21.58;9.93;;;;;;;15.88;41.99;98792.66;4217281;33;34734;-72
2022/03/29 06:31:39;;;;;;;16.83;9.13;;;;;;;16.31;41.67;98784.72;4218723;34;34910;-72
2022/03/29 06:34:07;;;;;;;14.82;9.10;;;;;;;16.58;40.25;98787.91;4218544;33;35283;-72
2022/03/29 06:36:35;;;;;;;19.75;9.48;;;;;;;16.73;40.32;98783.75;4219866;34;33771;-73
2022/03/29 06:39:04;;;;;;;17.73;9.27;;;;;;;15.98;41.89;98779.13;4227975;33;33923;-73
2022/03/29 06:41:32;;;;;;;19.95;10.77;;;;;;;16.51;41.02;98786.47;4219770;34;35014;-73
2022/03/29 06:44:00;;;;;;;17.30;9.98;;;;;;;16.90;39.81;98787.44;4219000;33;34477;-73
2022/03/29 06:46:28;;;;;;;19.33;9.95;;;;;;;17.30;38.47;98786.44;4219779;34;33706;-73
2022/03/29 06:48:57;;;;;;;13.90;9.00;;;;;;;16.72;38.04;98779.41;4229317;33;33806;-73
2022/03/29 06:51:26;;;;;;;17.23;9.68;;;;;;;17.32;34.96;98778.47;4218835;33;35168;-73
2022/03/29 06:53:54;;;;;;;14.63;8.77;;;;;;;17.50;35.37;98780.22;4218036;33;34539;-74
2022/03/29 06:56:22;;;;;;;14.15;8.18;;;;;;;17.56;35.09;98781.69;4219695;34;34201;-73
2022/03/29 06:58:51;;;;;;;15.35;8.57;;;;;;;17.38;36.01;98780.78;4218905;33;33896;-73
2022/03/29 07:01:19;;;;;;;19.98;9.32;;;;;;;17.89;33.88;98784.47;4219712;34;35042;-73
2022/03/29 07:03:48;;;;;;;19.80;9.13;;;;;;;17.24;35.88;98784.06;4218917;33;35411;-73
2022/03/29 07:06:16;;;;;;;16.87;8.57;;;;;;;17.90;34.16;98780.94;4219816;34;33825;-73
2022/03/29 07:11:51;;;;;;;19.77;9.15;;;;;;;18.03;34.66;98775.06;4216186;33;35033;-73
2022/03/29 07:14:19;;;;;;;18.52;9.32;;;;;;;19.23;32.58;98774.03;4218898;34;34494;-73
2022/03/29 07:16:47;;;;;;;19.58;9.68;;;;;;;17.52;33.47;98775.72;4219702;34;33725;-72
2022/03/29 07:19:15;;;;;;;17.45;9.15;;;;;;;18.82;35.62;98775.34;4217032;33;34616;-77
2022/03/29 07:21:44;;;;;;;18.70;9.70;;;;;;;19.70;32.47;98774.00;4205334;34;35042;-73
2022/03/29 07:24:12;;;;;;;18.10;8.80;;;;;;;19.48;33.04;98779.66;4207109;33;36079;-73
2022/03/29 07:26:40;;;;;;;17.70;10.38;;;;;;;20.26;31.78;98776.94;4218843;33;33745;-74
2022/03/29 07:29:08;;;;;;;15.32;8.95;;;;;;;20.56;31.73;98781.34;4206282;34;33828;-74
2022/03/29 07:31:37;;;;;;;19.42;10.07;;;;;;;21.36;30.46;98772.88;4229925;33;34835;-73
2022/03/29 07:34:05;;;;;;;16.08;9.20;;;;;;;20.49;30.24;98772.06;4217614;33;34555;-73
2022/03/29 07:36:33;;;;;;;15.95;8.27;;;;;;;19.68;31.34;98765.31;4219426;34;33748;-75
2022/03/29 07:39:01;;;;;;;16.83;8.63;;;;;;;20.92;30.00;98768.59;4218670;33;34741;-73
2022/03/29 07:41:29;;;;;;;16.67;9.73;;;;;;;21.37;28.64;98769.25;4219405;34;35102;-73
2022/03/29 07:43:57;;;;;;;21.30;11.20;;;;;;;22.17;27.65;98764.03;4217564;33;34248;-73
2022/03/29 07:46:25;;;;;;;18.42;8.73;;;;;;;21.27;30.16;98765.53;4218295;34;32860;-82
2022/03/29 07:48:53;;;;;;;19.92;9.93;;;;;;;20.39;30.02;98768.28;4218657;33;33657;-73
2022/03/29 07:51:41;;;;;;;18.08;9.30;;;;;;;20.53;30.25;98762.16;4219528;34;34965;-73
2022/03/29 07:54:09;;;;;;;17.67;9.60;;;;;;;21.55;28.64;98760.19;4217489;33;33381;-73
2022/03/29 07:56:37;;;;;;;20.75;8.80;;;;;;;22.18;29.61;98759.59;4219427;34;33604;-73
2022/03/29 07:59:05;;;;;;;15.70;9.02;;;;;;;21.91;30.12;98760.50;4229114;33;34113;-73
2022/03/29 08:01:33;;;;;;;19.62;10.02;;;;;;;21.23;28.80;98756.94;4218516;34;35010;-73
2022/03/29 08:04:01;;;;;;;18.90;9.68;;;;;;;20.73;31.72;98763.59;4228840;33;34321;-73
2022/03/29 08:06:30;;;;;;;20.50;11.00;;;;;;;21.33;27.63;98762.47;4219386;34;33607;-73
2022/03/29 08:08:58;;;;;;;15.73;9.43;;;;;;;21.62;26.91;98757.97;4218515;33;34757;-73
2022/03/29 08:11:27;;;;;;;16.37;8.35;;;;;;;22.08;26.66;98754.91;4219134;34;35937;-73
2022/03/29 08:13:56;;;;;;;16.58;9.40;;;;;;;22.82;26.39;98749.84;4218429;33;34449;-78
2022/03/29 08:16:24;;;;;;;19.83;9.32;;;;;;;22.40;25.56;98753.72;4215503;34;33916;-74
2022/03/29 08:18:53;;;;;;;18.75;8.77;;;;;;;22.47;27.23;98755.81;4217846;33;34899;-81
2022/03/29 08:24:09;;;;;;;17.98;9.40;;;;;;;22.63;25.72;98755.59;4218411;33;34512;-73
2022/03/29 08:26:37;;;;;;;16.08;8.80;;;;;;;22.76;24.98;98749.44;4219174;34;33806;-73
2022/03/29 08:29:05;;;;;;;16.17;8.43;;;;;;;23.09;24.47;98749.72;4218288;33;33923;-73
2022/03/29 08:31:33;;;;;;;18.70;9.48;;;;;;;23.36;24.37;98742.50;4218961;34;35101;-73
2022/03/29 08:34:01;;;;;;;15.07;8.90;;;;;;;23.38;24.85;98746.75;4218540;34;34483;-80
2022/03/29 08:36:29;;;;;;;19.80;10.15;;;;;;;23.65;24.28;98738.56;4227724;33;33560;-73
2022/03/29 08:38:57;;;;;;;18.85;9.88;;;;;;;23.37;24.55;98744.22;4219294;34;33865;-73
2022/03/29 08:41:31;;;;;;;16.73;10.23;;;;;;;23.96;24.79;98740.75;4218572;34;35451;-74
2022/03/29 08:44:01;;;;;;;22.05;10.38;;;;;;;23.86;24.12;98740.62;4217865;34;33082;-73
2022/03/29 08:46:38;;;;;;;17.37;9.88;;;;;;;24.09;23.97;98736.22;4217525;34;34503;-73
2022/03/29 08:49:07;;;;;;;17.17;9.18;;;;;;;23.65;23.82;98733.25;4217100;33;34726;-80
2022/03/29 08:51:36;;;;;;;18.10;10.32;;;;;;;23.74;24.09;98736.19;4203992;34;34976;-73
2022/03/29 08:54:05;;;;;;;18.08;9.73;;;;;;;23.32;26.12;98733.91;4215371;33;34418;-80
2022/03/29 08:56:34;;;;;;;14.18;8.15;;;;;;;24.39;23.91;98733.00;4217963;34;31969;-73
2022/03/29 08:59:02;;;;;;;17.17;9.15;;;;;;;24.11;24.04;98733.44;4218826;34;34030;-73
2022/03/29 09:01:29;;;;;;;22.40;9.68;;;;;;;25.26;23.84;98726.22;4217021;33;35888;-73
2022/03/29 09:04:10;;;;;;;18.20;10.05;;;;;;;24.10;23.73;98727.25;4218930;34;34555;-74
2022/03/29 09:06:50;;;;;;;16.30;9.60;;;;;;;23.58;25.24;98726.69;4218482;34;33747;-74
2022/03/29 09:09:26;;;;;;;14.57;8.52;;;;;;;24.67;24.18;98722.88;4218074;34;33747;-81
2022/03/29 09:11:56;;;;;;;18.12;9.30;;;;;;;25.01;24.18;98716.66;4215722;34;34951;-74
2022/03/29 09:14:28;;;;;;;19.62;9.88;;;;;;;25.34;22.78;98715.78;4216137;34;35137;-73
2022/03/29 09:16:58;;;;;;;17.60;9.05;;;;;;;24.17;23.65;98711.66;4227284;33;33518;-74
2022/03/29 09:19:46;;;;;;;22.75;9.98;;;;;;;24.68;24.63;98710.41;4216666;34;35316;-73
2022/03/29 09:22:37;;;;;;;19.92;8.52;;;;;;;25.00;24.58;98705.16;4218171;34;36004;-73
2022/03/29 09:25:06;;;;;;;15.80;8.18;;;;;;;24.47;23.87;98707.59;4216508;34;34702;-73
2022/03/29 09:27:58;;;;;;;14.68;9.35;;;;;;;25.30;22.00;98703.69;4218490;34;34522;-73
2022/03/29 09:30:40;;;;;;;15.88;8.68;;;;;;;24.88;22.39;98703.50;4217540;34;34763;-74
2022/03/29 09:33:13;;;;;;;15.85;8.02;;;;;;;25.06;21.86;98699.38;4217767;34;35095;-73
2022/03/29 09:36:03;;;;;;;16.52;8.15;;;;;;;24.29;22.96;98693.91;4225401;33;34513;-73
2022/03/29 09:38:40;;;;;;;21.60;8.77;;;;;;;23.89;23.82;98697.81;4207143;34;33823;-73
2022/03/29 09:41:20;;;;;;;17.62;7.53;;;;;;;23.50;24.55;98691.00;4216776;34;34696;-73
2022/03/29 09:44:11;;;;;;;14.63;7.80;;;;;;;24.81;21.68;98695.13;4218618;34;34946;-79
2022/03/29 09:46:59;;;;;;;26.45;8.90;;;;;;;24.47;22.36;98691.63;4216307;34;34490;-74
2022/03/29 09:49:28;;;;;;;18.02;9.07;;;;;;;23.62;23.01;98685.62;4216168;33;34648;-74
2022/03/29 09:52:15;;;;;;;17.75;8.32;;;;;;;23.43;23.74;98680.81;4216517;34;33987;-74
2022/03/29 09:55:16;;;;;;;16.80;8.05;;;;;;;24.48;23.47;98680.00;4217213;33;35133;-74
2022/03/29 09:57:48;;;;;;;16.10;9.05;;;;;;;24.20;23.08;98680.34;4217996;34;35287;-74
2022/03/29 10:00:39;;;;;;;16.10;8.00;;;;;;;24.51;21.98;98682.44;4204881;34;32934;-75
2022/03/29 10:03:09;;;;;;;15.98;8.35;;;;;;;24.11;22.52;98681.06;4218114;34;34075;-74
2022/03/29 10:05:38;;;;;;;15.75;8.32;;;;;;;24.23;23.27;98677.47;4216180;34;35176;-75
2022/03/29 10:11:04;;;;;;;12.20;7.18;;;;;;;25.09;22.13;98672.44;4219114;34;33501;-73
2022/03/29 10:13:32;;;;;;;24.27;8.68;;;;;;;25.17;22.36;98663.84;4218940;34;33811;-75
2022/03/29 10:16:01;;;;;;;16.10;8.05;;;;;;;25.52;21.29;98650.28;4216301;34;34930;-77
2022/03/29 10:18:29;;;;;;;16.98;8.02;;;;;;;26.00;20.38;98646.28;4218895;34;35285;-75
2022/03/29 10:20:58;;;;;;;17.40;7.90;;;;;;;26.51;19.83;98638.38;4217928;34;33796;-75
2022/03/29 10:23:28;;;;;;;16.87;8.20;;;;;;;26.18;18.36;98633.19;4218141;33;34651;-75
2022/03/29 10:25:57;;;;;;;19.58;7.50;;;;;;;25.97;19.13;98632.38;4217492;33;37130;-75
2022/03/29 10:28:26;;;;;;;15.30;7.37;;;;;;;26.32;19.93;98633.81;4220010;34;35402;-75
2022/03/29 10:30:54;;;;;;;13.02;7.60;;;;;;;27.48;18.72;98627.03;4217847;34;33799;-75
2022/03/29 10:33:23;;;;;;;20.45;7.75;;;;;;;26.26;18.58;98622.69;4230350;33;34650;-74
2022/03/29 10:36:12;;;;;;;17.65;8.23;;;;;;;26.80;19.05;98622.47;4217748;33;35122;-75
2022/03/29 10:41:27;;;;;;;24.30;9.73;;;;;;;26.61;18.51;98613.44;4219320;34;34318;-82
2022/03/29 10:44:01;;;;;;;19.58;7.70;;;;;;;26.36;19.66;98606.69;4219938;34;33984;-77
2022/03/29 10:46:39;;;;;;;16.50;7.57;;;;;;;27.02;18.64;98600.03;4206633;34;35039;-76
2022/03/29 10:49:34;;;;;;;16.85;8.23;;;;;;;27.45;17.92;98597.94;4219898;34;34658;-76
2022/03/29 10:52:22;;;;;;;19.20;8.27;;;;;;;26.87;18.19;98597.72;4217931;33;33723;-76
2022/03/29 10:54:50;;;;;;;20.67;8.15;;;;;;;27.37;18.35;98599.50;4216131;33;33537;-76
2022/03/29 10:57:28;;;;;;;16.92;8.70;;;;;;;28.51;17.91;98590.56;4206245;34;35197;-77
2022/03/29 11:00:10;;;;;;;17.05;8.25;;;;;;;27.77;18.34;98582.38;4217970;34;34460;-76
2022/03/29 11:03:07;;;;;;;14.57;8.45;;;;;;;27.99;17.44;98583.06;4220040;34;34789;-76
2022/03/29 11:06:04;;;;;;;17.85;8.40;;;;;;;27.94;18.00;98579.97;4217341;34;34983;-75
2022/03/29 11:08:37;;;;;;;18.90;8.95;;;;;;;28.77;17.89;98563.94;4218523;34;34591;-75
2022/03/29 11:11:08;;;;;;;17.95;9.00;;;;;;;28.17;17.33;98548.34;4223819;33;35324;-75
2022/03/29 11:13:39;;;;;;;21.05;9.25;;;;;;;28.20;16.96;98561.41;4217673;33;32990;-76
2022/03/29 11:16:30;;;;;;;13.90;7.72;;;;;;;27.08;17.93;98550.50;4218797;33;33500;-75
2022/03/29 11:18:59;;;;;;;19.35;9.82;;;;;;;29.07;15.53;98535.91;4217939;34;36151;-76
2022/03/29 11:21:34;;;;;;;18.48;9.20;;;;;;;27.97;17.08;98544.87;4217598;33;34546;-76
2022/03/29 11:24:05;;;;;;;16.45;8.27;;;;;;;27.87;17.58;98541.41;4229927;33;33748;-75
2022/03/29 11:26:35;;;;;;;14.50;8.60;;;;;;;27.23;18.61;98533.03;4216585;33;33858;-75
2022/03/29 11:29:06;;;;;;;15.73;8.13;;;;;;;27.40;17.41;98528.84;4219180;34;35153;-76
2022/03/29 11:31:37;;;;;;;21.00;8.35;;;;;;;28.24;17.36;98522.66;4218607;33;34455;-78
2022/03/29 11:34:09;;;;;;;16.35;8.35;;;;;;;29.01;16.36;98509.72;4218186;34;33780;-78
2022/03/29 11:36:39;;;;;;;15.48;8.50;;;;;;;28.95;16.99;98510.34;4218765;33;33843;-78
2022/03/29 11:39:27;;;;;;;16.42;8.50;;;;;;;29.36;16.31;98502.66;4219409;34;36034;-78
2022/03/29 11:41:56;;;;;;;14.27;8.63;;;;;;;28.68;15.27;98503.25;4218346;34;34502;-78
2022/03/29 11:44:25;;;;;;;22.90;8.63;;;;;;;28.82;15.73;98497.34;4219748;34;34542;-78
2022/03/29 11:46:56;;;;;;;17.12;9.10;;;;;;;29.71;15.44;98500.03;4192363;34;32247;-77
2022/03/29 11:49:27;;;;;;;17.50;8.50;;;;;;;28.82;15.44;98494.66;4217579;33;34922;-77
2022/03/29 11:52:05;;;;;;;20.45;9.60;;;;;;;28.83;15.92;98499.00;4217475;34;34439;-77
2022/03/29 11:54:45;;;;;;;16.35;8.38;;;;;;;28.23;15.20;98493.34;4218248;34;33786;-77
2022/03/29 11:57:14;;;;;;;17.20;8.60;;;;;;;28.23;15.22;98488.00;4218612;33;33935;-77
2022/03/29 11:59:43;;;;;;;18.40;7.72;;;;;;;27.67;15.59;98471.88;4219225;34;35830;-77